sensor_id;sensor_type;location;lat;lon;timestamp;pressure;altitude;pressure_sealevel;temperature;humidity
78407;BME280;67692;51.074;-1.790;2023-09-12T00:00:40;100848.03;;;20.73;76.43
78407;BME280;67692;51.074;-1.790;2023-09-12T00:03:07;100840.13;;;20.73;76.30
78407;BME280;67692;51.074;-1.790;2023-09-12T00:05:33;100841.47;;;20.69;76.36
78407;BME280;67692;51.074;-1.790;2023-09-12T00:08:00;100842.75;;;20.65;76.52
78407;BME280;67692;51.074;-1.790;2023-09-12T00:10:27;100841.13;;;20.64;76.88
78407;BME280;67692;51.074;-1.790;2023-09-12T00:12:53;100844.09;;;20.61;76.51
78407;BME280;67692;51.074;-1.790;2023-09-12T00:15:20;100842.28;;;20.61;76.79
78407;BME280;67692;51.074;-1.790;2023-09-12T00:17:48;100848.53;;;20.60;77.19
78407;BME280;67692;51.074;-1.790;2023-09-12T00:20:15;100844.91;;;20.61;76.69
78407;BME280;67692;51.074;-1.790;2023-09-12T00:22:41;100842.78;;;20.57;76.89
78407;BME280;67692;51.074;-1.790;2023-09-12T00:25:08;100845.91;;;20.60;76.79
78407;BME280;67692;51.074;-1.790;2023-09-12T00:27:34;100844.09;;;20.61;76.97
78407;BME280;67692;51.074;-1.790;2023-09-12T00:30:01;100844.75;;;20.63;76.65
78407;BME280;67692;51.074;-1.790;2023-09-12T00:32:27;100845.72;;;20.62;76.93
78407;BME280;67692;51.074;-1.790;2023-09-12T00:34:55;100848.19;;;20.63;76.64
78407;BME280;67692;51.074;-1.790;2023-09-12T00:37:22;100842.94;;;20.63;76.78
78407;BME280;67692;51.074;-1.790;2023-09-12T00:39:48;100850.50;;;20.66;76.64
78407;BME280;67692;51.074;-1.790;2023-09-12T00:42:16;100847.03;;;20.66;76.57
78407;BME280;67692;51.074;-1.790;2023-09-12T00:44:42;100844.09;;;20.61;76.57
78407;BME280;67692;51.074;-1.790;2023-09-12T00:47:09;100843.75;;;20.64;76.64
78407;BME280;67692;51.074;-1.790;2023-09-12T00:49:38;100843.75;;;20.64;76.58
78407;BME280;67692;51.074;-1.790;2023-09-12T00:52:07;100841.13;;;20.64;76.55
78407;BME280;67692;51.074;-1.790;2023-09-12T00:54:34;100832.75;;;20.60;76.50
78407;BME280;67692;51.074;-1.790;2023-09-12T00:57:01;100835.56;;;20.59;76.33
78407;BME280;67692;51.074;-1.790;2023-09-12T00:59:27;100827.50;;;20.60;76.22
78407;BME280;67692;51.074;-1.790;2023-09-12T01:01:54;100827.00;;;20.57;76.44
78407;BME280;67692;51.074;-1.790;2023-09-12T01:04:21;100820.09;;;20.56;76.09
78407;BME280;67692;51.074;-1.790;2023-09-12T01:06:48;100819.13;;;20.57;76.22
78407;BME280;67692;51.074;-1.790;2023-09-12T01:09:16;100819.13;;;20.57;75.80
78407;BME280;67692;51.074;-1.790;2023-09-12T01:11:44;100820.59;;;20.59;75.77
78407;BME280;67692;51.074;-1.790;2023-09-12T01:14:10;100820.75;;;20.58;75.65
78407;BME280;67692;51.074;-1.790;2023-09-12T01:16:37;100818.59;;;20.61;75.68
78407;BME280;67692;51.074;-1.790;2023-09-12T01:19:06;100817.13;;;20.59;75.58
78407;BME280;67692;51.074;-1.790;2023-09-12T01:21:42;100818.13;;;20.58;75.78
78407;BME280;67692;51.074;-1.790;2023-09-12T01:24:35;100811.69;;;20.60;75.66
78407;BME280;67692;51.074;-1.790;2023-09-12T01:27:19;100815.31;;;20.59;75.55
78407;BME280;67692;51.074;-1.790;2023-09-12T01:29:49;100811.22;;;20.57;75.66
78407;BME280;67692;51.074;-1.790;2023-09-12T01:32:18;100809.88;;;20.53;75.34
78407;BME280;67692;51.074;-1.790;2023-09-12T01:34:46;100810.06;;;20.51;75.96
78407;BME280;67692;51.074;-1.790;2023-09-12T01:37:12;100818.13;;;20.58;75.95
78407;BME280;67692;51.074;-1.790;2023-09-12T01:39:40;100820.41;;;20.53;75.44
78407;BME280;67692;51.074;-1.790;2023-09-12T01:42:08;100812.03;;;20.49;74.78
78407;BME280;67692;51.074;-1.790;2023-09-12T01:44:39;100813.69;;;20.50;74.96
78407;BME280;67692;51.074;-1.790;2023-09-12T01:47:07;100812.88;;;20.41;74.90
78407;BME280;67692;51.074;-1.790;2023-09-12T01:49:35;100813.16;;;20.38;74.83
78407;BME280;67692;51.074;-1.790;2023-09-12T01:52:02;100802.50;;;20.32;74.99
78407;BME280;67692;51.074;-1.790;2023-09-12T01:54:30;100804.13;;;20.25;75.01
78407;BME280;67692;51.074;-1.790;2023-09-12T01:56:57;100808.44;;;20.26;75.29
78407;BME280;67692;51.074;-1.790;2023-09-12T01:59:24;100817.81;;;20.28;75.49
78407;BME280;67692;51.074;-1.790;2023-09-12T02:01:52;100816.81;;;20.29;75.61
78407;BME280;67692;51.074;-1.790;2023-09-12T02:04:18;100808.94;;;20.29;75.91
78407;BME280;67692;51.074;-1.790;2023-09-12T02:06:45;100826.19;;;20.32;75.55
78407;BME280;67692;51.074;-1.790;2023-09-12T02:09:12;100820.59;;;20.27;75.80
78407;BME280;67692;51.074;-1.790;2023-09-12T02:11:38;100823.06;;;20.28;76.12
78407;BME280;67692;51.074;-1.790;2023-09-12T02:14:05;100817.81;;;20.28;75.64
78407;BME280;67692;51.074;-1.790;2023-09-12T02:16:31;100816.81;;;20.29;75.82
78407;BME280;67692;51.074;-1.790;2023-09-12T02:18:59;100818.97;;;20.26;75.44
78407;BME280;67692;51.074;-1.790;2023-09-12T02:21:26;100816.47;;;20.24;75.88
78407;BME280;67692;51.074;-1.790;2023-09-12T02:23:52;100820.25;;;20.21;75.49
78407;BME280;67692;51.074;-1.790;2023-09-12T02:26:19;100825.50;;;20.21;75.84
78407;BME280;67692;51.074;-1.790;2023-09-12T02:28:45;100822.22;;;20.19;76.17
78407;BME280;67692;51.074;-1.790;2023-09-12T02:31:12;100822.06;;;20.21;75.66
78407;BME280;67692;51.074;-1.790;2023-09-12T02:33:39;100829.47;;;20.26;75.81
78407;BME280;67692;51.074;-1.790;2023-09-12T02:36:07;100822.06;;;20.21;75.30
78407;BME280;67692;51.074;-1.790;2023-09-12T02:38:33;100821.56;;;20.17;75.78
78407;BME280;67692;51.074;-1.790;2023-09-12T02:41:00;100827.50;;;20.19;75.85
78407;BME280;67692;51.074;-1.790;2023-09-12T02:43:27;100823.06;;;20.12;75.53
78407;BME280;67692;51.074;-1.790;2023-09-12T02:45:54;100822.25;;;20.11;75.77
78407;BME280;67692;51.074;-1.790;2023-09-12T02:48:21;100821.25;;;20.12;75.53
78407;BME280;67692;51.074;-1.790;2023-09-12T02:50:47;100818.47;;;20.14;74.74
78407;BME280;67692;51.074;-1.790;2023-09-12T02:53:15;100821.09;;;20.14;75.02
78407;BME280;67692;51.074;-1.790;2023-09-12T02:55:42;100817.13;;;20.18;74.34
78407;BME280;67692;51.074;-1.790;2023-09-12T02:58:09;100810.91;;;20.19;74.43
78407;BME280;67692;51.074;-1.790;2023-09-12T03:00:37;100815.16;;;20.20;74.60
78407;BME280;67692;51.074;-1.790;2023-09-12T03:03:05;100814.34;;;20.19;74.48
78407;BME280;67692;51.074;-1.790;2023-09-12T03:05:31;100817.97;;;20.18;74.13
78407;BME280;67692;51.074;-1.790;2023-09-12T03:07:58;100822.72;;;20.15;74.57
78407;BME280;67692;51.074;-1.790;2023-09-12T03:10:26;100818.13;;;20.17;75.02
78407;BME280;67692;51.074;-1.790;2023-09-12T03:12:53;100818.78;;;20.19;74.82
78407;BME280;67692;51.074;-1.790;2023-09-12T03:15:19;100819.94;;;20.16;75.02
78407;BME280;67692;51.074;-1.790;2023-09-12T03:17:46;100817.13;;;20.10;74.86
78407;BME280;67692;51.074;-1.790;2023-09-12T03:20:13;100812.56;;;20.12;75.05
78407;BME280;67692;51.074;-1.790;2023-09-12T03:22:40;100811.72;;;20.11;75.22
78407;BME280;67692;51.074;-1.790;2023-09-12T03:25:07;100814.84;;;20.07;75.28
78407;BME280;67692;51.074;-1.790;2023-09-12T03:27:35;100816.47;;;20.08;75.32
78407;BME280;67692;51.074;-1.790;2023-09-12T03:30:02;100822.06;;;20.05;75.39
78407;BME280;67692;51.074;-1.790;2023-09-12T03:32:29;100813.53;;;20.03;75.56
78407;BME280;67692;51.074;-1.790;2023-09-12T03:34:56;100815.16;;;20.04;75.54
78407;BME280;67692;51.074;-1.790;2023-09-12T03:37:22;100809.56;;;20.07;75.26
78407;BME280;67692;51.074;-1.790;2023-09-12T03:39:52;100808.94;;;20.05;75.12
78407;BME280;67692;51.074;-1.790;2023-09-12T03:42:19;100810.25;;;20.01;75.41
78407;BME280;67692;51.074;-1.790;2023-09-12T03:44:46;100807.28;;;20.04;75.18
78407;BME280;67692;51.074;-1.790;2023-09-12T03:47:13;100801.19;;;20.03;75.07
78407;BME280;67692;51.074;-1.790;2023-09-12T03:49:39;100807.63;;;20.01;75.11
78407;BME280;67692;51.074;-1.790;2023-09-12T03:52:06;100802.00;;;19.96;75.27
78407;BME280;67692;51.074;-1.790;2023-09-12T03:54:33;100800.69;;;19.91;76.00
78407;BME280;67692;51.074;-1.790;2023-09-12T03:56:59;100799.06;;;19.90;75.64
78407;BME280;67692;51.074;-1.790;2023-09-12T03:59:26;100800.03;;;19.89;75.83
78407;BME280;67692;51.074;-1.790;2023-09-12T04:01:53;100803.19;;;19.85;76.08
78407;BME280;67692;51.074;-1.790;2023-09-12T04:04:20;100800.88;;;19.82;76.00
78407;BME280;67692;51.074;-1.790;2023-09-12T04:06:47;100793.81;;;19.82;76.02
78407;BME280;67692;51.074;-1.790;2023-09-12T04:09:13;100798.72;;;19.77;75.96
78407;BME280;67692;51.074;-1.790;2023-09-12T04:11:40;100790.69;;;19.71;76.19
78407;BME280;67692;51.074;-1.790;2023-09-12T04:14:06;100796.91;;;19.70;76.23
78407;BME280;67692;51.074;-1.790;2023-09-12T04:16:33;100793.13;;;19.72;76.28
78407;BME280;67692;51.074;-1.790;2023-09-12T04:19:01;100795.59;;;19.74;76.25
78407;BME280;67692;51.074;-1.790;2023-09-12T04:21:28;100792.78;;;19.67;76.39
78407;BME280;67692;51.074;-1.790;2023-09-12T04:23:54;100792.13;;;19.65;76.42
78407;BME280;67692;51.074;-1.790;2023-09-12T04:26:21;100786.22;;;19.63;76.47
78407;BME280;67692;51.074;-1.790;2023-09-12T04:28:48;100790.16;;;19.59;76.61
78407;BME280;67692;51.074;-1.790;2023-09-12T04:31:15;100782.78;;;19.54;76.77
78407;BME280;67692;51.074;-1.790;2023-09-12T04:33:42;100779.44;;;19.52;76.58
78407;BME280;67692;51.074;-1.790;2023-09-12T04:36:09;100781.09;;;19.53;76.75
78407;BME280;67692;51.074;-1.790;2023-09-12T04:38:36;100774.03;;;19.54;76.84
78407;BME280;67692;51.074;-1.790;2023-09-12T04:41:03;100773.91;;;19.55;76.76
78407;BME280;67692;51.074;-1.790;2023-09-12T04:43:30;100780.97;;;19.55;76.76
78407;BME280;67692;51.074;-1.790;2023-09-12T04:45:57;100780.56;;;19.50;76.61
78407;BME280;67692;51.074;-1.790;2023-09-12T04:48:23;100776.47;;;19.47;76.98
78407;BME280;67692;51.074;-1.790;2023-09-12T04:50:50;100770.56;;;19.45;77.00
78407;BME280;67692;51.074;-1.790;2023-09-12T04:53:18;100776.47;;;19.47;76.96
78407;BME280;67692;51.074;-1.790;2023-09-12T04:55:44;100771.22;;;19.47;77.01
78407;BME280;67692;51.074;-1.790;2023-09-12T04:58:11;100778.13;;;19.48;77.19
78407;BME280;67692;51.074;-1.790;2023-09-12T05:00:39;100785.84;;;19.50;77.32
78407;BME280;67692;51.074;-1.790;2023-09-12T05:03:06;100789.44;;;19.49;77.16
78407;BME280;67692;51.074;-1.790;2023-09-12T05:05:34;100794.53;;;19.42;77.35
78407;BME280;67692;51.074;-1.790;2023-09-12T05:08:00;100787.97;;;19.46;77.09
78407;BME280;67692;51.074;-1.790;2023-09-12T05:10:28;100792.41;;;19.46;77.50
78407;BME280;67692;51.074;-1.790;2023-09-12T05:12:55;100788.13;;;19.45;77.47
78407;BME280;67692;51.074;-1.790;2023-09-12T05:15:22;100788.94;;;19.45;77.40
78407;BME280;67692;51.074;-1.790;2023-09-12T05:17:48;100789.13;;;19.52;77.37
78407;BME280;67692;51.074;-1.790;2023-09-12T05:20:15;100786.66;;;19.50;77.36
78407;BME280;67692;51.074;-1.790;2023-09-12T05:22:41;100791.09;;;19.50;77.60
78407;BME280;67692;51.074;-1.790;2023-09-12T05:25:08;100783.88;;;19.52;77.29
78407;BME280;67692;51.074;-1.790;2023-09-12T05:27:36;100794.38;;;19.52;77.43
78407;BME280;67692;51.074;-1.790;2023-09-12T05:30:03;100787.47;;;19.51;77.51
78407;BME280;67692;51.074;-1.790;2023-09-12T05:32:30;100786.66;;;19.50;77.22
78407;BME280;67692;51.074;-1.790;2023-09-12T05:34:57;100791.75;;;19.52;77.35
78407;BME280;67692;51.074;-1.790;2023-09-12T05:37:23;100792.56;;;19.52;77.23
78407;BME280;67692;51.074;-1.790;2023-09-12T05:39:50;100796.03;;;19.53;77.21
78407;BME280;67692;51.074;-1.790;2023-09-12T05:42:16;100792.13;;;19.57;76.71
78407;BME280;67692;51.074;-1.790;2023-09-12T05:44:47;100790.75;;;19.45;77.08
78407;BME280;67692;51.074;-1.790;2023-09-12T05:47:14;100790.09;;;19.51;77.18
78407;BME280;67692;51.074;-1.790;2023-09-12T05:49:40;100794.09;;;19.55;76.68
78407;BME280;67692;51.074;-1.790;2023-09-12T05:52:07;100784.56;;;19.54;76.25
78407;BME280;67692;51.074;-1.790;2023-09-12T05:54:34;100789.13;;;19.52;76.75
78407;BME280;67692;51.074;-1.790;2023-09-12T05:57:00;100789.13;;;19.52;76.63
78407;BME280;67692;51.074;-1.790;2023-09-12T05:59:27;100794.69;;;19.49;76.31
78407;BME280;67692;51.074;-1.790;2023-09-12T06:01:55;100797.97;;;19.51;76.83
78407;BME280;67692;51.074;-1.790;2023-09-12T06:04:22;100798.81;;;19.51;76.72
78407;BME280;67692;51.074;-1.790;2023-09-12T06:06:48;100800.44;;;19.52;76.74
78407;BME280;67692;51.074;-1.790;2023-09-12T06:09:15;100802.13;;;19.53;76.90
78407;BME280;67692;51.074;-1.790;2023-09-12T06:11:41;100803.78;;;19.54;76.85
78407;BME280;67692;51.074;-1.790;2023-09-12T06:14:08;100801.16;;;19.54;76.77
78407;BME280;67692;51.074;-1.790;2023-09-12T06:16:34;100807.91;;;19.57;76.92
78407;BME280;67692;51.074;-1.790;2023-09-12T06:19:02;100809.53;;;19.58;76.89
78407;BME280;67692;51.074;-1.790;2023-09-12T06:21:29;100811.19;;;19.59;76.72
78407;BME280;67692;51.074;-1.790;2023-09-12T06:24:09;100813.16;;;19.57;76.96
78407;BME280;67692;51.074;-1.790;2023-09-12T06:26:36;100813.31;;;19.55;77.04
78407;BME280;67692;51.074;-1.790;2023-09-12T06:29:02;100823.94;;;19.54;76.79
78407;BME280;67692;51.074;-1.790;2023-09-12T06:31:29;100818.69;;;19.54;76.84
78407;BME280;67692;51.074;-1.790;2023-09-12T06:33:56;100813.75;;;19.51;76.73
78407;BME280;67692;51.074;-1.790;2023-09-12T06:36:24;100815.13;;;19.55;76.45
78407;BME280;67692;51.074;-1.790;2023-09-12T06:38:50;100820.38;;;19.55;76.45
78407;BME280;67692;51.074;-1.790;2023-09-12T06:41:19;100818.69;;;19.54;76.30
78407;BME280;67692;51.074;-1.790;2023-09-12T06:43:45;100815.13;;;19.55;76.62
78407;BME280;67692;51.074;-1.790;2023-09-12T06:46:12;100814.28;;;19.54;76.65
78407;BME280;67692;51.074;-1.790;2023-09-12T06:48:39;100816.75;;;19.56;76.19
78407;BME280;67692;51.074;-1.790;2023-09-12T06:51:08;100817.25;;;19.59;76.11
78407;BME280;67692;51.074;-1.790;2023-09-12T06:53:36;100826.63;;;19.62;75.82
78407;BME280;67692;51.074;-1.790;2023-09-12T06:56:03;100828.25;;;19.63;75.65
78407;BME280;67692;51.074;-1.790;2023-09-12T06:58:29;100826.28;;;19.65;75.87
78407;BME280;67692;51.074;-1.790;2023-09-12T07:00:56;100820.56;;;19.70;75.69
78407;BME280;67692;51.074;-1.790;2023-09-12T07:03:27;100825.81;;;19.70;75.26
78407;BME280;67692;51.074;-1.790;2023-09-12T07:05:54;100832.56;;;19.72;75.35
78407;BME280;67692;51.074;-1.790;2023-09-12T07:08:20;100827.78;;;19.76;75.39
78407;BME280;67692;51.074;-1.790;2023-09-12T07:10:48;100829.59;;;19.75;75.28
78407;BME280;67692;51.074;-1.790;2023-09-12T07:13:15;100829.44;;;19.77;75.47
78407;BME280;67692;51.074;-1.790;2023-09-12T07:15:41;100836.00;;;19.81;75.40
78407;BME280;67692;51.074;-1.790;2023-09-12T07:18:08;100841.25;;;19.81;75.87
78407;BME280;67692;51.074;-1.790;2023-09-12T07:20:35;100847.19;;;19.83;75.86
78407;BME280;67692;51.074;-1.790;2023-09-12T07:23:01;100841.59;;;19.78;76.12
78407;BME280;67692;51.074;-1.790;2023-09-12T07:25:28;100846.03;;;19.77;76.18
78407;BME280;67692;51.074;-1.790;2023-09-12T07:27:56;100844.69;;;19.81;75.97
78407;BME280;67692;51.074;-1.790;2023-09-12T07:30:22;100845.72;;;19.88;75.67
78407;BME280;67692;51.074;-1.790;2023-09-12T07:32:49;100847.34;;;19.89;75.22
78407;BME280;67692;51.074;-1.790;2023-09-12T07:35:17;100839.78;;;19.95;75.22
78407;BME280;67692;51.074;-1.790;2023-09-12T07:37:44;100844.25;;;20.02;75.30
78407;BME280;67692;51.074;-1.790;2023-09-12T07:40:11;100840.78;;;19.94;75.45
78407;BME280;67692;51.074;-1.790;2023-09-12T07:42:37;100845.06;;;19.95;75.86
78407;BME280;67692;51.074;-1.790;2023-09-12T07:45:06;100844.41;;;19.92;76.12
78407;BME280;67692;51.074;-1.790;2023-09-12T07:47:33;100853.94;;;20.02;75.76
78407;BME280;67692;51.074;-1.790;2023-09-12T07:50:00;100865.78;;;20.06;75.58
78407;BME280;67692;51.074;-1.790;2023-09-12T07:52:26;100865.44;;;20.09;75.73
78407;BME280;67692;51.074;-1.790;2023-09-12T07:54:59;100854.28;;;20.15;75.29
78407;BME280;67692;51.074;-1.790;2023-09-12T07:57:25;100861.19;;;20.16;74.97
78407;BME280;67692;51.074;-1.790;2023-09-12T07:59:52;100859.03;;;20.19;75.22
78407;BME280;67692;51.074;-1.790;2023-09-12T08:02:20;100868.75;;;20.19;74.80
78407;BME280;67692;51.074;-1.790;2023-09-12T08:04:46;100863.97;;;20.23;75.01
78407;BME280;67692;51.074;-1.790;2023-09-12T08:07:13;100862.50;;;20.20;75.02
78407;BME280;67692;51.074;-1.790;2023-09-12T08:09:50;100863.66;;;20.17;75.30
78407;BME280;67692;51.074;-1.790;2023-09-12T08:12:17;100860.69;;;20.20;75.51
78407;BME280;67692;51.074;-1.790;2023-09-12T08:14:44;100872.03;;;20.21;75.27
78407;BME280;67692;51.074;-1.790;2023-09-12T08:17:11;100869.56;;;20.19;75.40
78407;BME280;67692;51.074;-1.790;2023-09-12T08:19:39;100876.31;;;20.22;75.46
78407;BME280;67692;51.074;-1.790;2023-09-12T08:22:07;100878.75;;;20.24;75.69
78407;BME280;67692;51.074;-1.790;2023-09-12T08:24:34;100875.66;;;20.28;75.58
78407;BME280;67692;51.074;-1.790;2023-09-12T08:27:01;100879.75;;;20.23;75.74
78407;BME280;67692;51.074;-1.790;2023-09-12T08:29:28;100873.84;;;20.20;76.01
78407;BME280;67692;51.074;-1.790;2023-09-12T08:31:55;100884.84;;;20.24;76.42
78407;BME280;67692;51.074;-1.790;2023-09-12T08:34:22;100884.38;;;20.29;76.28
78407;BME280;67692;51.074;-1.790;2023-09-12T08:36:50;100889.81;;;20.27;76.15
78407;BME280;67692;51.074;-1.790;2023-09-12T08:39:22;100888.16;;;20.26;76.28
78407;BME280;67692;51.074;-1.790;2023-09-12T08:41:49;100882.72;;;20.28;76.72
78407;BME280;67692;51.074;-1.790;2023-09-12T08:44:16;100891.28;;;20.30;76.66
78407;BME280;67692;51.074;-1.790;2023-09-12T08:46:44;100879.59;;;20.32;76.54
78407;BME280;67692;51.074;-1.790;2023-09-12T08:49:11;100886.50;;;20.33;76.50
78407;BME280;67692;51.074;-1.790;2023-09-12T08:51:39;100877.63;;;20.34;76.34
78407;BME280;67692;51.074;-1.790;2023-09-12T08:54:07;100873.34;;;20.33;76.18
78407;BME280;67692;51.074;-1.790;2023-09-12T08:56:38;100876.47;;;20.37;76.30
78407;BME280;67692;51.074;-1.790;2023-09-12T08:59:06;100876.31;;;20.38;76.34
78407;BME280;67692;51.074;-1.790;2023-09-12T09:01:34;100871.72;;;20.40;75.97
78407;BME280;67692;51.074;-1.790;2023-09-12T09:04:02;100882.94;;;20.42;76.37
78407;BME280;67692;51.074;-1.790;2023-09-12T09:06:30;100879.13;;;20.45;76.28
78407;BME280;67692;51.074;-1.790;2023-09-12T09:08:57;100880.94;;;20.44;76.31
78407;BME280;67692;51.074;-1.790;2023-09-12T09:11:26;100874.53;;;20.47;76.23
78407;BME280;67692;51.074;-1.790;2023-09-12T09:13:54;100873.38;;;20.58;75.57
78407;BME280;67692;51.074;-1.790;2023-09-12T09:16:22;100881.28;;;20.58;75.39
78407;BME280;67692;51.074;-1.790;2023-09-12T09:18:53;100881.63;;;20.55;75.19
78407;BME280;67692;51.074;-1.790;2023-09-12T09:21:21;100880.13;;;20.60;75.32
78407;BME280;67692;51.074;-1.790;2023-09-12T09:23:50;100883.88;;;20.66;75.12
78407;BME280;67692;51.074;-1.790;2023-09-12T09:26:17;100881.91;;;20.68;75.14
78407;BME280;67692;51.074;-1.790;2023-09-12T09:28:45;100878.78;;;20.72;75.45
78407;BME280;67692;51.074;-1.790;2023-09-12T09:31:12;100882.56;;;20.78;74.82
78407;BME280;67692;51.074;-1.790;2023-09-12T09:33:39;100883.53;;;20.85;74.80
78407;BME280;67692;51.074;-1.790;2023-09-12T09:36:11;100883.84;;;20.90;74.27
78407;BME280;67692;51.074;-1.790;2023-09-12T09:38:37;100885.78;;;20.96;74.48
78407;BME280;67692;51.074;-1.790;2023-09-12T09:41:05;100879.88;;;21.02;73.71
78407;BME280;67692;51.074;-1.790;2023-09-12T09:43:32;100869.47;;;21.09;73.20
78407;BME280;67692;51.074;-1.790;2023-09-12T09:46:00;100871.25;;;21.17;73.35
78407;BME280;67692;51.074;-1.790;2023-09-12T09:48:26;100864.00;;;21.19;71.88
78407;BME280;67692;51.074;-1.790;2023-09-12T09:51:00;100871.25;;;21.17;72.17
78407;BME280;67692;51.074;-1.790;2023-09-12T09:53:27;100875.03;;;21.22;71.58
78407;BME280;67692;51.074;-1.790;2023-09-12T09:56:07;100871.59;;;21.30;71.41
78407;BME280;67692;51.074;-1.790;2023-09-12T09:58:34;100874.50;;;21.35;71.30
78407;BME280;67692;51.074;-1.790;2023-09-12T10:01:02;100868.06;;;21.37;70.77
78407;BME280;67692;51.074;-1.790;2023-09-12T10:03:33;100865.59;;;21.44;70.87
78407;BME280;67692;51.074;-1.790;2023-09-12T10:06:04;100867.06;;;21.47;70.56
78407;BME280;67692;51.074;-1.790;2023-09-12T10:08:32;100863.25;;;21.49;70.56
78407;BME280;67692;51.074;-1.790;2023-09-12T10:11:00;100861.63;;;21.48;70.52
78407;BME280;67692;51.074;-1.790;2023-09-12T10:13:27;100858.97;;;21.48;71.18
78407;BME280;67692;51.074;-1.790;2023-09-12T10:15:58;100866.84;;;21.56;70.57
78407;BME280;67692;51.074;-1.790;2023-09-12T10:18:29;100861.88;;;21.61;70.33
78407;BME280;67692;51.074;-1.790;2023-09-12T10:21:05;100860.84;;;21.71;70.11
78407;BME280;67692;51.074;-1.790;2023-09-12T10:23:37;100858.44;;;21.84;69.91
78407;BME280;67692;51.074;-1.790;2023-09-12T10:26:09;100854.22;;;21.97;69.25
78407;BME280;67692;51.074;-1.790;2023-09-12T10:28:37;100860.25;;;22.14;67.71
78407;BME280;67692;51.074;-1.790;2023-09-12T10:31:05;100855.16;;;22.27;67.05
78407;BME280;67692;51.074;-1.790;2023-09-12T10:33:34;100859.56;;;22.35;66.52
78407;BME280;67692;51.074;-1.790;2023-09-12T10:36:02;100853.09;;;22.38;66.30
78407;BME280;67692;51.074;-1.790;2023-09-12T10:38:30;100848.75;;;22.45;66.47
78407;BME280;67692;51.074;-1.790;2023-09-12T10:41:00;100851.91;;;22.40;66.14
78407;BME280;67692;51.074;-1.790;2023-09-12T10:43:28;100855.16;;;22.27;66.47
78407;BME280;67692;51.074;-1.790;2023-09-12T10:45:56;100848.44;;;22.02;66.68
78407;BME280;67692;51.074;-1.790;2023-09-12T10:48:25;100849.66;;;21.91;66.74
78407;BME280;67692;51.074;-1.790;2023-09-12T10:50:54;100850.50;;;21.84;67.52
78407;BME280;67692;51.074;-1.790;2023-09-12T10:53:23;100844.66;;;21.74;68.19
78407;BME280;67692;51.074;-1.790;2023-09-12T10:55:58;100843.53;;;21.68;68.86
78407;BME280;67692;51.074;-1.790;2023-09-12T10:58:25;100849.34;;;21.63;68.82
78407;BME280;67692;51.074;-1.790;2023-09-12T11:01:21;100852.69;;;21.57;69.21
78407;BME280;67692;51.074;-1.790;2023-09-12T11:03:48;100854.63;;;21.55;69.37
78407;BME280;67692;51.074;-1.790;2023-09-12T11:06:23;100853.00;;;21.54;69.78
78407;BME280;67692;51.074;-1.790;2023-09-12T11:09:15;100851.38;;;21.53;70.21
78407;BME280;67692;51.074;-1.790;2023-09-12T11:11:43;100855.50;;;21.56;69.94
78407;BME280;67692;51.074;-1.790;2023-09-12T11:14:11;100862.41;;;21.57;70.36
78407;BME280;67692;51.074;-1.790;2023-09-12T11:16:38;100857.28;;;21.55;69.71
78407;BME280;67692;51.074;-1.790;2023-09-12T11:19:15;100854.31;;;21.58;69.53
78407;BME280;67692;51.074;-1.790;2023-09-12T11:21:45;100861.22;;;21.59;69.67
78407;BME280;67692;51.074;-1.790;2023-09-12T11:24:13;100858.41;;;21.61;70.25
78407;BME280;67692;51.074;-1.790;2023-09-12T11:26:54;100859.25;;;21.61;69.88
78407;BME280;67692;51.074;-1.790;2023-09-12T11:29:21;100858.41;;;21.61;69.71
78407;BME280;67692;51.074;-1.790;2023-09-12T11:31:55;100860.22;;;21.60;70.07
78407;BME280;67692;51.074;-1.790;2023-09-12T11:34:24;100863.53;;;21.54;70.65
78407;BME280;67692;51.074;-1.790;2023-09-12T11:36:55;100863.06;;;21.51;70.45
78407;BME280;67692;51.074;-1.790;2023-09-12T11:39:23;100864.59;;;21.45;71.34
78407;BME280;67692;51.074;-1.790;2023-09-12T11:41:51;100871.50;;;21.46;72.15
78407;BME280;67692;51.074;-1.790;2023-09-12T11:44:18;100866.34;;;21.53;74.35
78407;BME280;67692;51.074;-1.790;2023-09-12T11:46:47;100865.53;;;21.52;74.60
78407;BME280;67692;51.074;-1.790;2023-09-12T11:49:15;100863.53;;;21.54;76.04
78407;BME280;67692;51.074;-1.790;2023-09-12T11:51:49;100869.63;;;21.55;76.53
78407;BME280;67692;51.074;-1.790;2023-09-12T11:54:19;100866.19;;;21.54;75.86
78407;BME280;67692;51.074;-1.790;2023-09-12T11:56:47;100875.41;;;21.58;76.11
78407;BME280;67692;51.074;-1.790;2023-09-12T11:59:14;100869.97;;;21.60;76.89
78407;BME280;67692;51.074;-1.790;2023-09-12T12:01:44;100868.50;;;21.57;75.56
78407;BME280;67692;51.074;-1.790;2023-09-12T12:04:10;100865.84;;;21.57;75.38
78407;BME280;67692;51.074;-1.790;2023-09-12T12:06:37;100863.50;;;21.62;75.64
78407;BME280;67692;51.074;-1.790;2023-09-12T12:09:04;100861.69;;;21.63;76.00
78407;BME280;67692;51.074;-1.790;2023-09-12T12:11:32;100863.22;;;21.57;74.65
78407;BME280;67692;51.074;-1.790;2023-09-12T12:14:09;100860.69;;;21.64;74.05
78407;BME280;67692;51.074;-1.790;2023-09-12T12:16:36;100872.22;;;21.71;74.77
78407;BME280;67692;51.074;-1.790;2023-09-12T12:19:02;100862.78;;;21.77;74.96
78407;BME280;67692;51.074;-1.790;2023-09-12T12:21:29;100864.69;;;21.83;74.09
78407;BME280;67692;51.074;-1.790;2023-09-12T12:24:00;100865.00;;;21.88;75.00
78407;BME280;67692;51.074;-1.790;2023-09-12T12:26:27;100862.66;;;21.93;74.81
78407;BME280;67692;51.074;-1.790;2023-09-12T12:28:54;100866.28;;;21.92;72.49
78407;BME280;67692;51.074;-1.790;2023-09-12T12:31:22;100861.72;;;21.86;73.08
78407;BME280;67692;51.074;-1.790;2023-09-12T12:33:50;100861.72;;;21.86;72.72
78407;BME280;67692;51.074;-1.790;2023-09-12T12:36:17;100864.38;;;21.86;73.40
78407;BME280;67692;51.074;-1.790;2023-09-12T12:38:46;100871.94;;;21.89;73.59
78407;BME280;67692;51.074;-1.790;2023-09-12T12:41:13;100876.56;;;21.87;73.66
78407;BME280;67692;51.074;-1.790;2023-09-12T12:43:40;100869.97;;;21.83;71.96